Time;durP1;ratioP1;P1;durP2;ratioP2;P2;SDS_P1;SDS_P2;PMS_P1;PMS_P2;Temp;Humidity;BMP_temperature;BMP_pressure;BME280_temperature;BME280_humidity;BME280_pressure;Samples;Min_cycle;Max_cycle;Signal;HPM_P1;HPM_P2
2021/11/29 00:02:27;;;;;;;23.02;17.67;;;4.80;99.90;;;;;;5071425;28;20286;-51
2021/11/29 00:04:54;;;;;;;25.90;17.05;;;5.00;99.90;;;;;;5071623;28;20234;-51
2021/11/29 00:07:21;;;;;;;25.30;16.90;;;4.40;99.90;;;;;;5053389;28;20227;-50
2021/11/29 00:09:48;;;;;;;25.88;18.58;;;4.70;99.90;;;;;;5071396;28;20195;-51
2021/11/29 00:12:16;;;;;;;25.30;17.23;;;4.80;99.90;;;;;;5071142;28;20660;-51
2021/11/29 00:14:43;;;;;;;27.88;17.42;;;4.90;99.90;;;;;;5053708;28;20309;-51
2021/11/29 00:17:10;;;;;;;27.58;18.02;;;5.00;99.90;;;;;;5071337;28;20222;-51
2021/11/29 00:19:37;;;;;;;25.05;16.88;;;4.90;99.90;;;;;;5053208;28;20233;-51
2021/11/29 00:22:04;;;;;;;26.77;17.80;;;4.80;99.90;;;;;;5071353;28;20187;-50
2021/11/29 00:24:31;;;;;;;26.02;17.50;;;4.90;99.90;;;;;;5071495;28;20195;-51
2021/11/29 00:26:58;;;;;;;27.98;18.48;;;4.70;99.90;;;;;;5089171;28;20291;-51
2021/11/29 00:29:27;;;;;;;27.23;18.48;;;4.20;99.90;;;;;;5073204;28;20206;-51
2021/11/29 00:31:54;;;;;;;30.52;20.85;;;5.10;99.90;;;;;;5091476;28;20191;-51
2021/11/29 00:34:24;;;;;;;31.98;20.50;;;5.00;99.90;;;;;;5073322;28;20195;-51
2021/11/29 00:36:51;;;;;;;26.25;17.45;;;4.80;99.90;;;;;;5091319;28;20277;-51
2021/11/29 00:39:18;;;;;;;30.40;21.10;;;4.80;99.90;;;;;;5091096;28;20195;-51
2021/11/29 00:41:46;;;;;;;28.65;19.05;;;5.00;99.90;;;;;;5091201;28;20198;-51
2021/11/29 00:44:13;;;;;;;31.27;20.30;;;4.70;99.90;;;;;;5091344;28;20206;-51
2021/11/29 00:46:44;;;;;;;35.65;20.95;;;4.90;99.90;;;;;;5090112;28;20624;-51
2021/11/29 00:49:11;;;;;;;32.75;19.77;;;5.00;99.90;;;;;;5070726;28;20246;-51
2021/11/29 00:51:37;;;;;;;34.30;21.05;;;4.90;99.90;;;;;;5070953;28;20210;-50
2021/11/29 00:54:06;;;;;;;33.25;21.42;;;4.80;99.90;;;;;;5071064;28;20600;-51
2021/11/29 00:56:33;;;;;;;32.45;20.90;;;4.90;99.90;;;;;;5070893;28;20255;-51
2021/11/29 00:59:00;;;;;;;34.63;24.05;;;4.90;99.90;;;;;;5052728;28;20253;-51
2021/11/29 01:01:27;;;;;;;32.97;22.35;;;4.80;99.90;;;;;;5070904;28;20199;-51
2021/11/29 01:03:55;;;;;;;35.33;23.48;;;4.90;99.90;;;;;;5070929;28;20268;-51
2021/11/29 01:06:25;;;;;;;35.22;22.90;;;5.00;99.90;;;;;;5071003;28;20206;-51
2021/11/29 01:08:52;;;;;;;38.97;22.95;;;5.10;99.90;;;;;;5052422;28;20259;-51
2021/11/29 01:11:19;;;;;;;39.35;22.63;;;4.70;99.90;;;;;;5070866;28;20200;-51
2021/11/29 01:13:46;;;;;;;36.25;21.60;;;4.90;99.90;;;;;;5070870;28;20226;-51
2021/11/29 01:16:13;;;;;;;32.75;21.23;;;4.70;99.90;;;;;;5070849;28;20227;-51
2021/11/29 01:18:43;;;;;;;37.38;22.20;;;4.90;99.90;;;;;;5052444;28;20200;-50
2021/11/29 01:21:14;;;;;;;34.53;22.73;;;4.60;99.90;;;;;;5052743;28;20203;-51
2021/11/29 01:23:41;;;;;;;38.38;23.52;;;4.90;99.90;;;;;;5054782;28;20200;-51
2021/11/29 01:26:10;;;;;;;38.40;23.20;;;4.60;99.90;;;;;;5085568;28;20199;-51
2021/11/29 01:28:37;;;;;;;36.13;21.65;;;5.00;99.90;;;;;;5094095;28;20795;-51
2021/11/29 01:31:04;;;;;;;34.92;20.98;;;4.70;99.90;;;;;;5076328;28;20203;-51
2021/11/29 01:33:32;;;;;;;31.88;21.40;;;4.60;99.90;;;;;;5094435;28;20256;-51
2021/11/29 01:35:59;;;;;;;35.00;21.73;;;4.80;99.90;;;;;;5094370;28;20255;-51
2021/11/29 01:38:27;;;;;;;36.22;21.42;;;4.90;99.90;;;;;;5075966;28;20252;-49
2021/11/29 01:40:55;;;;;;;30.75;20.73;;;4.90;99.90;;;;;;5076248;28;20670;-49
2021/11/29 01:43:22;;;;;;;33.85;21.55;;;4.80;99.90;;;;;;5094270;28;20199;-49
2021/11/29 01:45:52;;;;;;;32.00;22.95;;;5.00;99.90;;;;;;5075953;28;20317;-48
2021/11/29 01:48:19;;;;;;;32.10;21.60;;;4.30;99.90;;;;;;5057573;28;20757;-49
2021/11/29 01:50:48;;;;;;;30.80;21.65;;;4.80;99.90;;;;;;5052689;28;20200;-51
2021/11/29 01:53:16;;;;;;;29.00;20.10;;;4.80;99.90;;;;;;5053951;28;20750;-49
2021/11/29 01:55:46;;;;;;;34.95;21.73;;;4.70;99.90;;;;;;5054019;28;20196;-49
2021/11/29 01:58:13;;;;;;;37.42;21.75;;;5.10;99.90;;;;;;5051967;28;20215;-49
2021/11/29 02:00:44;;;;;;;29.60;21.70;;;5.00;99.90;;;;;;5052314;28;20200;-49
2021/11/29 02:03:12;;;;;;;35.75;21.10;;;4.90;99.90;;;;;;5067701;28;20601;-49
2021/11/29 02:05:40;;;;;;;36.45;21.50;;;4.90;99.90;;;;;;5055828;28;20582;-49
2021/11/29 02:08:08;;;;;;;32.53;20.92;;;5.10;99.90;;;;;;5055338;28;20746;-49
2021/11/29 02:10:36;;;;;;;33.53;21.13;;;5.00;99.90;;;;;;5055737;28;20257;-49
2021/11/29 02:13:04;;;;;;;31.27;19.98;;;4.90;99.90;;;;;;5055503;28;20197;-51
2021/11/29 02:15:32;;;;;;;35.13;20.38;;;5.10;99.90;;;;;;5055483;28;20739;-51
2021/11/29 02:17:59;;;;;;;34.13;22.52;;;4.80;99.90;;;;;;5072837;28;20223;-49
2021/11/29 02:20:31;;;;;;;32.70;20.50;;;5.00;99.90;;;;;;5055358;28;20199;-49
2021/11/29 02:23:00;;;;;;;34.70;20.48;;;4.70;99.90;;;;;;5073722;28;20195;-49
2021/11/29 02:25:27;;;;;;;38.17;23.30;;;4.60;99.90;;;;;;5078830;28;20198;-49
2021/11/29 02:27:54;;;;;;;34.13;20.25;;;4.90;99.90;;;;;;5074566;28;20299;-49
2021/11/29 02:30:25;;;;;;;36.63;21.38;;;4.10;99.90;;;;;;5093594;28;20569;-49
2021/11/29 02:32:52;;;;;;;33.42;21.80;;;4.80;99.90;;;;;;5093316;28;20191;-49
2021/11/29 02:35:20;;;;;;;29.98;18.98;;;4.80;99.90;;;;;;5092843;28;20199;-49
2021/11/29 02:37:48;;;;;;;29.30;19.27;;;4.30;99.90;;;;;;5092699;28;20596;-49
2021/11/29 02:40:15;;;;;;;32.35;19.35;;;4.80;99.90;;;;;;5093154;28;20686;-49
2021/11/29 02:42:42;;;;;;;28.33;18.55;;;4.60;99.90;;;;;;5093018;28;20198;-49
2021/11/29 02:45:09;;;;;;;32.72;19.92;;;3.90;99.90;;;;;;5093155;28;20202;-49
2021/11/29 02:47:36;;;;;;;26.20;18.10;;;4.40;99.90;;;;;;5062698;28;20207;-49
2021/11/29 02:50:02;;;;;;;29.75;18.10;;;4.70;99.90;;;;;;5052815;28;20211;-49
2021/11/29 02:52:29;;;;;;;31.13;18.77;;;4.60;99.90;;;;;;5053142;28;20196;-49
2021/11/29 02:54:57;;;;;;;31.15;18.95;;;4.40;99.90;;;;;;5052917;28;20679;-49
2021/11/29 02:57:25;;;;;;;32.40;18.77;;;4.40;99.90;;;;;;5052743;28;20632;-49
2021/11/29 02:59:52;;;;;;;35.03;21.60;;;4.80;99.90;;;;;;5052120;28;20657;-49
2021/11/29 03:02:20;;;;;;;31.38;19.23;;;4.40;99.90;;;;;;5058938;28;20195;-49
2021/11/29 03:04:47;;;;;;;29.50;19.20;;;4.40;99.90;;;;;;5072368;28;20206;-49
2021/11/29 03:07:15;;;;;;;30.20;18.70;;;4.60;99.90;;;;;;5054539;28;20268;-49
2021/11/29 03:09:42;;;;;;;28.98;18.65;;;4.70;99.90;;;;;;5053826;28;20215;-49
2021/11/29 03:12:10;;;;;;;27.98;18.92;;;4.30;99.90;;;;;;5072320;28;20604;-49
2021/11/29 03:14:37;;;;;;;23.35;16.33;;;4.40;99.90;;;;;;5072311;28;20226;-49
2021/11/29 03:17:05;;;;;;;28.08;18.23;;;4.40;99.90;;;;;;5072332;28;20241;-49
2021/11/29 03:19:33;;;;;;;26.65;17.20;;;4.40;99.90;;;;;;5071793;28;20196;-48
2021/11/29 03:22:03;;;;;;;27.23;17.15;;;4.50;99.90;;;;;;5072057;28;20207;-49
2021/11/29 03:24:29;;;;;;;28.35;18.90;;;4.80;99.90;;;;;;5072063;28;20443;-49
2021/11/29 03:26:56;;;;;;;32.28;17.98;;;4.70;99.90;;;;;;5072002;28;20695;-49
2021/11/29 03:29:24;;;;;;;36.15;20.65;;;4.40;99.90;;;;;;5091843;28;20591;-49
2021/11/29 03:31:52;;;;;;;31.52;19.70;;;4.70;99.90;;;;;;5092259;28;20237;-49
2021/11/29 03:34:20;;;;;;;30.90;18.40;;;4.80;99.90;;;;;;5092095;28;20231;-49
2021/11/29 03:36:48;;;;;;;33.70;20.00;;;4.60;99.90;;;;;;5092114;28;20707;-49
2021/11/29 03:39:18;;;;;;;36.85;22.17;;;4.80;99.90;;;;;;5073585;28;20198;-49
2021/11/29 03:41:46;;;;;;;32.90;20.40;;;4.90;99.90;;;;;;5092375;28;20187;-50
2021/11/29 03:44:14;;;;;;;33.53;20.77;;;4.60;99.90;;;;;;5092061;28;20236;-49
2021/11/29 03:46:42;;;;;;;33.60;22.48;;;4.70;99.90;;;;;;5090371;28;20218;-49
2021/11/29 03:49:09;;;;;;;33.47;21.08;;;4.70;99.90;;;;;;5071149;28;20585;-49
2021/11/29 03:51:37;;;;;;;36.88;22.40;;;4.70;99.90;;;;;;5071951;28;20210;-49
2021/11/29 03:54:04;;;;;;;41.22;22.65;;;4.50;99.90;;;;;;5071723;28;20206;-49
2021/11/29 03:56:31;;;;;;;39.42;23.30;;;4.70;99.90;;;;;;5071615;28;20246;-49
2021/11/29 03:58:58;;;;;;;39.65;24.75;;;4.60;99.90;;;;;;5071318;28;20195;-50
2021/11/29 04:01:25;;;;;;;37.30;21.67;;;4.50;99.90;;;;;;5071723;28;20320;-50
2021/11/29 04:03:53;;;;;;;41.13;23.42;;;4.40;99.90;;;;;;5053266;28;20664;-49
2021/11/29 04:06:20;;;;;;;39.65;21.40;;;4.40;99.90;;;;;;5071458;28;20226;-49
2021/11/29 04:08:46;;;;;;;44.30;24.20;;;4.60;99.90;;;;;;5071215;28;20223;-50
2021/11/29 04:11:13;;;;;;;38.33;22.17;;;4.40;99.90;;;;;;5071802;28;20199;-49
2021/11/29 04:13:42;;;;;;;42.33;23.77;;;4.40;99.90;;;;;;5071350;28;20199;-50
2021/11/29 04:16:08;;;;;;;42.10;22.60;;;4.40;99.90;;;;;;5071212;28;21840;-50
2021/11/29 04:18:36;;;;;;;43.25;23.10;;;4.60;99.90;;;;;;5071088;28;20198;-50
2021/11/29 04:21:05;;;;;;;40.42;23.10;;;4.70;99.90;;;;;;5071393;28;20198;-50
2021/11/29 04:23:31;;;;;;;46.58;24.52;;;4.50;99.90;;;;;;5071289;28;20206;-50
2021/11/29 04:26:01;;;;;;;42.22;24.45;;;4.50;99.90;;;;;;5081447;28;20207;-50
2021/11/29 04:28:29;;;;;;;47.28;24.13;;;4.40;99.90;;;;;;5091183;28;20441;-50
2021/11/29 04:30:56;;;;;;;51.88;25.13;;;5.00;99.90;;;;;;5091516;28;20226;-50
2021/11/29 04:33:23;;;;;;;50.80;26.13;;;4.20;99.90;;;;;;5091688;28;20663;-50
2021/11/29 04:35:50;;;;;;;38.85;22.48;;;4.60;99.90;;;;;;5091585;28;20190;-51
2021/11/29 04:38:18;;;;;;;45.22;25.50;;;4.60;99.90;;;;;;5091539;28;20664;-50
2021/11/29 04:40:44;;;;;;;45.03;25.50;;;4.40;99.90;;;;;;5091625;28;20202;-50
2021/11/29 04:43:11;;;;;;;46.60;25.58;;;4.50;99.90;;;;;;5091612;28;20201;-50
2021/11/29 04:45:39;;;;;;;46.35;26.08;;;4.60;99.90;;;;;;5091497;28;20201;-50
2021/11/29 04:48:05;;;;;;;45.13;25.92;;;4.70;99.90;;;;;;5078376;28;20251;-50
2021/11/29 04:50:33;;;;;;;38.65;24.70;;;4.40;99.90;;;;;;5070943;28;20230;-50
2021/11/29 04:52:59;;;;;;;46.78;24.33;;;4.70;99.90;;;;;;5071136;28;20206;-50
2021/11/29 04:55:27;;;;;;;46.78;24.33;;;4.50;99.90;;;;;;5070959;28;20200;-50
2021/11/29 04:57:54;;;;;;;40.65;25.13;;;4.40;99.90;;;;;;5096298;22;20744;-50
2021/11/29 05:00:21;;;;;;;44.95;24.73;;;5.00;99.90;;;;;;5075131;28;20274;-51
2021/11/29 05:02:49;;;;;;;48.67;26.60;;;4.50;99.90;;;;;;5074903;28;20199;-50
2021/11/29 05:05:16;;;;;;;43.53;25.85;;;4.70;99.90;;;;;;5074697;28;20206;-51
2021/11/29 05:07:43;;;;;;;47.13;26.33;;;4.40;99.90;;;;;;5074405;28;20269;-51
2021/11/29 05:10:10;;;;;;;44.92;24.90;;;4.40;99.90;;;;;;5074655;28;20234;-50
2021/11/29 05:12:38;;;;;;;48.15;25.27;;;4.50;99.90;;;;;;5074833;28;20198;-50
2021/11/29 05:15:07;;;;;;;48.13;25.10;;;4.60;99.90;;;;;;5074522;28;20660;-51
2021/11/29 05:17:33;;;;;;;47.38;26.05;;;4.50;99.90;;;;;;5074554;28;20224;-50
2021/11/29 05:20:00;;;;;;;47.42;25.75;;;4.60;99.90;;;;;;5073968;28;20678;-49
2021/11/29 05:22:27;;;;;;;48.50;25.55;;;4.50;99.90;;;;;;5074472;28;20640;-50
2021/11/29 05:24:54;;;;;;;47.88;26.70;;;4.40;99.90;;;;;;5075352;28;20529;-49
2021/11/29 05:27:20;;;;;;;48.03;27.60;;;4.50;99.90;;;;;;5095449;28;20226;-50
2021/11/29 05:29:48;;;;;;;48.03;26.65;;;4.70;99.90;;;;;;5094218;28;20218;-49
2021/11/29 05:32:15;;;;;;;50.47;26.05;;;4.40;99.90;;;;;;5094624;28;20195;-50
2021/11/29 05:34:41;;;;;;;53.95;28.42;;;4.80;99.90;;;;;;5094394;28;20224;-50
2021/11/29 05:37:09;;;;;;;44.42;24.90;;;4.50;99.90;;;;;;5094454;28;20210;-50
2021/11/29 05:39:35;;;;;;;52.03;26.65;;;4.40;99.90;;;;;;5094056;28;20210;-50
2021/11/29 05:42:02;;;;;;;42.25;26.40;;;4.30;99.90;;;;;;5094410;28;20194;-50
2021/11/29 05:44:29;;;;;;;49.40;26.50;;;4.60;99.90;;;;;;5094497;28;20191;-50
2021/11/29 05:46:56;;;;;;;42.53;25.40;;;4.70;99.90;;;;;;5091448;28;20242;-50
2021/11/29 05:49:23;;;;;;;50.92;26.67;;;4.60;99.90;;;;;;5073589;28;20211;-50
2021/11/29 05:51:50;;;;;;;46.75;24.40;;;5.00;99.90;;;;;;5074600;28;20195;-50
2021/11/29 05:54:16;;;;;;;49.55;27.13;;;4.70;99.90;;;;;;5076897;28;20195;-50
2021/11/29 05:56:43;;;;;;;46.40;27.13;;;4.60;99.90;;;;;;5073826;28;20238;-49
2021/11/29 05:59:10;;;;;;;45.92;25.25;;;4.70;99.90;;;;;;5073775;28;20180;-49
2021/11/29 06:01:37;;;;;;;47.50;26.80;;;4.80;99.90;;;;;;5073712;28;20196;-50
2021/11/29 06:04:05;;;;;;;43.35;25.52;;;4.40;99.90;;;;;;5074015;28;20195;-49
2021/11/29 06:06:31;;;;;;;47.28;28.25;;;4.80;99.90;;;;;;5073330;28;20225;-50
2021/11/29 06:08:58;;;;;;;46.72;27.42;;;4.20;99.90;;;;;;5054466;28;20801;-50
2021/11/29 06:11:25;;;;;;;48.75;27.58;;;4.10;99.90;;;;;;5073765;28;20187;-50
2021/11/29 06:13:52;;;;;;;45.28;26.92;;;4.70;99.90;;;;;;5073415;28;20231;-50
2021/11/29 06:16:18;;;;;;;46.35;27.35;;;5.20;99.90;;;;;;5073842;28;20203;-50
2021/11/29 06:18:45;;;;;;;42.33;25.15;;;4.80;99.90;;;;;;5073284;28;20210;-50
2021/11/29 06:21:13;;;;;;;41.25;25.05;;;4.60;99.90;;;;;;5073364;28;20699;-50
2021/11/29 06:23:40;;;;;;;41.28;25.33;;;4.70;99.90;;;;;;5073384;28;20202;-50
2021/11/29 06:26:06;;;;;;;42.53;25.83;;;4.70;99.90;;;;;;5083471;28;20217;-48
2021/11/29 06:28:33;;;;;;;46.13;26.35;;;4.90;99.90;;;;;;5092926;28;20221;-50
2021/11/29 06:30:59;;;;;;;44.35;26.08;;;4.70;99.90;;;;;;5093454;28;20549;-50
2021/11/29 06:33:26;;;;;;;42.13;26.13;;;4.30;99.90;;;;;;5093392;28;20199;-50
2021/11/29 06:35:54;;;;;;;47.55;26.90;;;4.40;99.90;;;;;;5093416;28;20207;-50
2021/11/29 06:38:22;;;;;;;40.15;26.52;;;4.60;99.90;;;;;;5092788;28;20219;-51
2021/11/29 06:40:50;;;;;;;43.55;26.45;;;4.80;99.90;;;;;;5092973;28;20202;-52
2021/11/29 06:43:18;;;;;;;41.03;22.88;;;4.70;99.90;;;;;;5092716;28;20195;-51
2021/11/29 06:45:44;;;;;;;42.08;24.73;;;4.70;99.90;;;;;;5093278;28;20666;-52
2021/11/29 06:48:12;;;;;;;34.65;23.30;;;4.80;99.90;;;;;;5079312;28;20222;-53
2021/11/29 06:50:39;;;;;;;47.63;30.10;;;4.50;99.90;;;;;;5071940;28;20254;-50
2021/11/29 06:53:05;;;;;;;45.47;25.25;;;4.50;99.90;;;;;;5072477;28;20558;-51
2021/11/29 06:55:34;;;;;;;34.00;22.80;;;4.50;99.90;;;;;;5072077;28;20200;-51
2021/11/29 06:58:01;;;;;;;37.03;23.52;;;4.60;99.90;;;;;;5072205;28;20623;-49
2021/11/29 07:00:28;;;;;;;37.47;22.25;;;4.70;99.90;;;;;;5072179;28;20191;-50
2021/11/29 07:02:56;;;;;;;36.15;23.02;;;5.10;99.90;;;;;;5072308;28;20279;-51
2021/11/29 07:05:25;;;;;;;35.38;23.42;;;4.90;99.90;;;;;;5073254;28;20195;-50
2021/11/29 07:07:53;;;;;;;31.90;22.60;;;4.60;99.90;;;;;;5071953;28;20227;-50
2021/11/29 07:10:21;;;;;;;40.60;25.90;;;4.60;99.90;;;;;;5072522;28;20305;-51
2021/11/29 07:12:50;;;;;;;36.78;25.55;;;4.50;99.90;;;;;;5072484;28;20541;-51
2021/11/29 07:15:16;;;;;;;34.40;21.50;;;4.30;99.90;;;;;;5075212;28;20195;-51
2021/11/29 07:17:43;;;;;;;35.15;23.48;;;4.50;99.90;;;;;;5072021;28;20226;-50
2021/11/29 07:20:10;;;;;;;38.03;24.13;;;4.70;99.90;;;;;;5071686;28;20207;-50
2021/11/29 07:22:37;;;;;;;37.15;22.30;;;4.50;99.90;;;;;;5053734;28;20199;-50
2021/11/29 07:25:05;;;;;;;33.22;21.75;;;4.10;99.90;;;;;;5074728;28;20620;-51
2021/11/29 07:27:34;;;;;;;32.28;22.33;;;4.70;99.90;;;;;;5073722;28;20229;-50
2021/11/29 07:30:04;;;;;;;36.28;22.65;;;4.20;99.90;;;;;;5091786;28;20214;-50
2021/11/29 07:32:31;;;;;;;33.10;22.05;;;4.60;99.90;;;;;;5092638;28;20206;-50
2021/11/29 07:34:58;;;;;;;39.40;22.65;;;4.90;99.90;;;;;;5092588;28;20198;-50
2021/11/29 07:37:25;;;;;;;35.97;22.67;;;4.50;99.90;;;;;;5092177;28;20214;-50
2021/11/29 07:39:52;;;;;;;32.85;20.30;;;4.80;99.90;;;;;;5092169;28;20197;-50
2021/11/29 07:42:20;;;;;;;36.33;22.80;;;4.50;99.90;;;;;;5092460;28;20571;-50
2021/11/29 07:44:47;;;;;;;35.13;24.15;;;4.70;99.90;;;;;;5091783;28;20266;-50
2021/11/29 07:47:15;;;;;;;38.60;25.23;;;4.80;99.90;;;;;;5086440;28;20232;-52
2021/11/29 07:49:41;;;;;;;35.22;23.63;;;4.60;99.90;;;;;;5052618;28;20222;-50
2021/11/29 07:52:09;;;;;;;36.95;22.55;;;4.50;99.90;;;;;;5071399;28;20200;-49
2021/11/29 07:54:35;;;;;;;36.08;23.58;;;4.70;99.90;;;;;;5071870;28;20222;-50
2021/11/29 07:57:02;;;;;;;39.05;22.85;;;4.80;99.90;;;;;;5071261;28;20227;-50
2021/11/29 07:59:29;;;;;;;38.78;25.02;;;4.70;99.90;;;;;;5071388;28;20676;-50
2021/11/29 08:01:58;;;;;;;34.03;22.88;;;4.60;99.90;;;;;;5070932;28;20195;-51
2021/11/29 08:04:26;;;;;;;39.75;22.73;;;4.20;99.90;;;;;;5071411;28;20217;-51
2021/11/29 08:06:53;;;;;;;32.22;19.70;;;4.60;99.90;;;;;;5071533;28;20218;-51
2021/11/29 08:09:20;;;;;;;34.10;21.90;;;4.70;99.90;;;;;;5070518;28;20192;-49
2021/11/29 08:11:47;;;;;;;39.45;24.42;;;4.90;99.90;;;;;;5071191;28;20282;-51
2021/11/29 08:14:14;;;;;;;38.20;23.48;;;4.70;99.90;;;;;;5071484;28;20203;-50
2021/11/29 08:16:40;;;;;;;31.98;21.02;;;4.40;99.90;;;;;;5053215;28;20227;-50
2021/11/29 08:19:07;;;;;;;34.53;22.95;;;4.40;99.90;;;;;;5071524;28;20192;-50
2021/11/29 08:21:35;;;;;;;37.30;22.75;;;4.70;99.90;;;;;;5071001;28;20199;-49
2021/11/29 08:24:02;;;;;;;37.92;22.08;;;4.70;99.90;;;;;;5071380;28;20206;-49
2021/11/29 08:26:29;;;;;;;32.50;21.70;;;4.60;99.90;;;;;;5084992;28;20237;-50
2021/11/29 08:28:55;;;;;;;37.00;21.92;;;4.70;99.90;;;;;;5090741;28;20206;-50
2021/11/29 08:31:22;;;;;;;33.38;22.02;;;4.80;99.90;;;;;;5073189;28;20237;-51
2021/11/29 08:33:49;;;;;;;38.35;23.20;;;4.80;99.90;;;;;;5095835;28;20252;-51
2021/11/29 08:36:15;;;;;;;38.25;24.15;;;5.20;99.90;;;;;;5096900;28;20202;-51
2021/11/29 08:38:43;;;;;;;37.08;23.70;;;4.80;99.90;;;;;;5095920;28;20190;-50
2021/11/29 08:41:10;;;;;;;38.03;22.08;;;4.60;99.90;;;;;;5095392;28;20183;-50
2021/11/29 08:43:38;;;;;;;37.45;23.23;;;4.30;99.90;;;;;;5095551;28;20194;-49
2021/11/29 08:46:05;;;;;;;41.65;21.70;;;5.30;99.90;;;;;;5095204;28;20220;-49
2021/11/29 08:48:32;;;;;;;39.92;22.30;;;5.20;99.90;;;;;;5077646;28;20540;-51
2021/11/29 08:50:59;;;;;;;37.72;22.55;;;4.70;99.90;;;;;;5075265;28;20219;-50
2021/11/29 08:53:28;;;;;;;35.25;22.00;;;4.70;99.90;;;;;;5074911;28;20195;-50
2021/11/29 08:55:57;;;;;;;37.17;22.25;;;4.40;99.90;;;;;;5074810;28;20201;-49
2021/11/29 08:58:24;;;;;;;37.55;23.42;;;5.10;99.90;;;;;;5074543;28;20650;-50
2021/11/29 09:00:53;;;;;;;35.58;23.35;;;4.90;99.90;;;;;;5075326;28;20187;-50
2021/11/29 09:03:20;;;;;;;33.03;21.17;;;4.90;99.90;;;;;;5073397;28;20210;-51
2021/11/29 09:05:47;;;;;;;41.15;23.63;;;4.40;99.90;;;;;;5085133;28;20253;-50
2021/11/29 09:08:15;;;;;;;34.30;22.52;;;5.10;99.90;;;;;;5082013;28;20219;-50
2021/11/29 09:10:43;;;;;;;38.42;23.77;;;5.10;99.90;;;;;;5095298;28;20280;-51
2021/11/29 09:13:11;;;;;;;44.17;24.27;;;5.10;99.90;;;;;;5080599;28;20208;-50
2021/11/29 09:15:39;;;;;;;35.00;22.13;;;5.20;99.90;;;;;;5074597;28;20200;-48
2021/11/29 09:18:06;;;;;;;36.83;22.08;;;5.20;99.90;;;;;;5073897;28;20223;-51
2021/11/29 09:20:32;;;;;;;34.50;21.38;;;5.00;99.90;;;;;;5077881;28;20187;-50
2021/11/29 09:23:02;;;;;;;32.10;20.23;;;5.00;99.90;;;;;;5094668;28;20195;-50
2021/11/29 09:25:29;;;;;;;33.88;21.15;;;4.70;99.90;;;;;;5094440;28;20203;-50
2021/11/29 09:27:57;;;;;;;41.60;24.13;;;5.50;99.90;;;;;;5093783;28;20221;-51
2021/11/29 09:30:25;;;;;;;33.38;22.20;;;5.10;99.90;;;;;;5094128;28;20617;-50
2021/11/29 09:32:51;;;;;;;37.28;21.63;;;4.70;99.90;;;;;;5094247;28;20194;-50
2021/11/29 09:35:20;;;;;;;35.90;22.27;;;5.60;99.90;;;;;;5094563;28;20199;-50
2021/11/29 09:37:48;;;;;;;39.47;22.50;;;4.90;99.90;;;;;;5093583;28;20246;-52
2021/11/29 09:40:18;;;;;;;37.70;23.15;;;5.10;99.90;;;;;;5094224;28;20600;-50
2021/11/29 09:42:45;;;;;;;36.60;21.35;;;5.20;99.90;;;;;;5094095;28;20273;-50
2021/11/29 09:45:14;;;;;;;37.63;22.35;;;5.20;99.90;;;;;;5078902;28;20209;-50
2021/11/29 09:47:42;;;;;;;36.67;22.50;;;5.10;99.90;;;;;;5073231;28;20911;-49
2021/11/29 09:50:10;;;;;;;38.13;22.50;;;5.20;99.90;;;;;;5073541;28;20759;-49
2021/11/29 09:52:38;;;;;;;33.70;20.48;;;5.40;99.90;;;;;;5071167;28;20578;-50
2021/11/29 09:55:08;;;;;;;35.35;20.92;;;5.30;99.90;;;;;;5072078;28;20215;-50
2021/11/29 09:57:39;;;;;;;36.92;22.75;;;5.30;99.90;;;;;;5072055;28;20719;-50
2021/11/29 10:00:08;;;;;;;39.65;23.00;;;5.10;99.90;;;;;;5073593;28;20200;-50
2021/11/29 10:02:35;;;;;;;33.28;21.77;;;5.30;99.90;;;;;;5071606;28;20203;-51
2021/11/29 10:05:03;;;;;;;34.92;20.65;;;5.00;99.90;;;;;;5072250;28;20191;-50
2021/11/29 10:07:32;;;;;;;34.30;20.23;;;5.20;99.90;;;;;;5073177;28;20215;-51
2021/11/29 10:10:11;;;;;;;34.58;20.10;;;5.20;99.90;;;;;;5073818;28;20598;-51
2021/11/29 10:12:38;;;;;;;39.20;20.42;;;5.30;99.90;;;;;;5074007;28;20199;-49
2021/11/29 10:15:18;;;;;;;35.88;21.05;;;5.20;99.90;;;;;;5073560;28;20200;-51
2021/11/29 10:17:45;;;;;;;32.33;20.10;;;5.00;99.90;;;;;;5072499;28;20265;-50
2021/11/29 10:20:14;;;;;;;33.53;19.65;;;5.20;99.90;;;;;;5073071;28;20215;-50
2021/11/29 10:22:54;;;;;;;32.63;20.50;;;5.20;99.90;;;;;;5072061;28;20237;-50
2021/11/29 10:25:22;;;;;;;30.90;19.63;;;5.00;99.90;;;;;;5077208;28;20191;-51
2021/11/29 10:27:49;;;;;;;31.15;19.63;;;5.20;99.90;;;;;;5093039;28;20217;-50
2021/11/29 10:30:17;;;;;;;31.17;20.00;;;5.50;99.90;;;;;;5093105;28;20195;-51
2021/11/29 10:32:45;;;;;;;29.95;19.05;;;5.10;99.90;;;;;;5093094;28;20217;-50
2021/11/29 10:35:21;;;;;;;31.95;19.20;;;5.40;99.90;;;;;;5093401;28;20194;-54
2021/11/29 10:37:51;;;;;;;30.95;19.23;;;5.10;99.90;;;;;;5074485;28;20327;-50
2021/11/29 10:40:20;;;;;;;30.48;19.70;;;5.30;99.90;;;;;;5093855;28;20183;-51
2021/11/29 10:42:47;;;;;;;31.73;19.98;;;5.00;99.90;;;;;;5092335;28;20217;-50
2021/11/29 10:45:20;;;;;;;31.25;19.42;;;5.40;99.90;;;;;;5092854;28;20206;-50
2021/11/29 10:47:49;;;;;;;28.55;18.45;;;5.20;99.90;;;;;;5081848;28;20216;-51
2021/11/29 10:50:17;;;;;;;30.88;18.25;;;5.30;99.90;;;;;;5054421;28;20291;-51
2021/11/29 10:52:47;;;;;;;26.48;18.58;;;5.10;99.90;;;;;;5071507;28;20218;-50
2021/11/29 10:55:14;;;;;;;32.15;19.70;;;5.50;99.90;;;;;;5071980;28;20268;-50
2021/11/29 10:57:47;;;;;;;29.65;18.35;;;5.60;99.90;;;;;;5094203;22;20266;-51
2021/11/29 11:00:17;;;;;;;32.85;19.40;;;5.50;99.90;;;;;;5072111;28;20310;-50
2021/11/29 11:03:01;;;;;;;30.75;21.15;;;5.20;99.90;;;;;;5071097;28;20453;-51
2021/11/29 11:05:29;;;;;;;34.42;19.85;;;6.30;99.90;;;;;;5072117;28;20207;-50
2021/11/29 11:08:08;;;;;;;24.33;16.33;;;5.50;99.90;;;;;;5071156;28;20219;-51
2021/11/29 11:10:35;;;;;;;32.55;18.52;;;5.10;99.90;;;;;;5071869;28;20222;-51
2021/11/29 11:13:04;;;;;;;26.30;17.98;;;5.00;99.90;;;;;;5071290;28;20218;-51
2021/11/29 11:15:42;;;;;;;24.23;16.80;;;5.90;99.90;;;;;;5070694;28;20271;-51
2021/11/29 11:18:09;;;;;;;25.95;18.02;;;5.10;99.90;;;;;;5071059;28;20682;-49
2021/11/29 11:20:37;;;;;;;23.53;16.40;;;5.60;99.90;;;;;;5071254;28;20231;-51
2021/11/29 11:23:04;;;;;;;24.45;15.38;;;4.50;99.90;;;;;;5070635;28;20445;-50
2021/11/29 11:25:34;;;;;;;19.42;13.23;;;5.50;99.90;;;;;;5075991;28;20191;-51
2021/11/29 11:28:03;;;;;;;25.80;16.42;;;5.60;99.90;;;;;;5090101;28;20222;-50
2021/11/29 11:30:32;;;;;;;25.08;15.55;;;5.70;99.90;;;;;;5091921;28;20203;-50
2021/11/29 11:33:01;;;;;;;27.70;17.67;;;5.10;99.90;;;;;;5092451;28;20196;-52
2021/11/29 11:35:31;;;;;;;28.35;16.98;;;5.50;99.90;;;;;;5091436;28;20220;-52
2021/11/29 11:38:02;;;;;;;26.80;16.10;;;5.60;99.90;;;;;;5090593;28;20246;-51
2021/11/29 11:40:32;;;;;;;23.40;15.85;;;5.60;99.90;;;;;;5091481;28;20506;-52
2021/11/29 11:43:00;;;;;;;24.17;14.07;;;5.60;99.90;;;;;;5091788;28;20206;-51
2021/11/29 11:45:29;;;;;;;20.40;14.80;;;5.30;99.90;;;;;;5091938;28;20419;-51
2021/11/29 11:47:59;;;;;;;21.27;14.38;;;5.80;99.90;;;;;;5078933;28;20220;-51
2021/11/29 11:50:27;;;;;;;23.73;14.60;;;6.10;99.90;;;;;;5071552;28;20748;-51
2021/11/29 11:52:58;;;;;;;19.83;13.32;;;5.70;99.90;;;;;;5071356;28;20404;-52
2021/11/29 11:55:31;;;;;;;21.35;14.10;;;6.00;99.90;;;;;;5070200;28;20255;-52
2021/11/29 11:58:00;;;;;;;21.35;14.10;;;5.90;99.90;;;;;;5051369;28;20235;-51
2021/11/29 12:00:30;;;;;;;22.45;13.63;;;5.30;99.90;;;;;;5071154;28;20210;-51
2021/11/29 12:03:07;;;;;;;18.50;13.07;;;6.00;99.90;;;;;;5070890;28;20258;-51
2021/11/29 12:05:36;;;;;;;23.75;12.75;;;5.70;99.90;;;;;;5070799;28;20617;-51
2021/11/29 12:08:06;;;;;;;19.00;11.87;;;5.80;99.90;;;;;;5070675;28;20228;-50
2021/11/29 12:10:40;;;;;;;20.33;13.37;;;5.70;99.90;;;;;;5071529;28;20803;-52
2021/11/29 12:13:11;;;;;;;20.33;12.67;;;5.30;99.90;;;;;;5070763;28;20459;-52
2021/11/29 12:15:44;;;;;;;19.75;12.70;;;5.10;99.90;;;;;;5052646;28;20566;-51
2021/11/29 12:18:13;;;;;;;20.20;12.23;;;5.70;99.90;;;;;;5069348;28;20700;-52
2021/11/29 12:20:40;;;;;;;16.63;11.20;;;5.60;99.90;;;;;;5068967;28;20886;-52
2021/11/29 12:23:41;;;;;;;18.60;11.97;;;5.30;99.90;;;;;;5069192;28;20203;-52
2021/11/29 12:26:09;;;;;;;16.13;10.98;;;5.50;99.90;;;;;;5080140;28;20436;-51
2021/11/29 12:28:37;;;;;;;15.80;10.83;;;5.70;99.90;;;;;;5088249;28;20214;-51
2021/11/29 12:31:05;;;;;;;18.30;10.40;;;5.40;99.90;;;;;;5089389;28;20468;-52
2021/11/29 12:33:45;;;;;;;14.48;10.25;;;5.50;99.90;;;;;;5089991;28;20862;-53
2021/11/29 12:36:12;;;;;;;15.65;10.95;;;5.60;99.90;;;;;;5090698;28;20206;-51
2021/11/29 12:38:47;;;;;;;20.63;12.63;;;5.50;99.90;;;;;;5072140;28;20230;-53
2021/11/29 12:41:35;;;;;;;19.13;10.90;;;5.60;99.90;;;;;;5090838;28;20405;-52